sensor_id;sensor_type;location;lat;lon;timestamp;pressure;altitude;pressure_sealevel;temperature;humidity
11830;BME280;5972;42.134;24.718;2023-07-29T00:02:12;99330.09;;;21.91;53.81
11830;BME280;5972;42.134;24.718;2023-07-29T00:04:38;99330.94;;;21.88;53.50
11830;BME280;5972;42.134;24.718;2023-07-29T00:07:07;99310.81;;;21.71;55.17
11830;BME280;5972;42.134;24.718;2023-07-29T00:09:33;99326.41;;;21.58;55.88
11830;BME280;5972;42.134;24.718;2023-07-29T00:12:00;99324.09;;;21.10;58.93
11830;BME280;5972;42.134;24.718;2023-07-29T00:14:27;99322.91;;;21.11;59.68
11830;BME280;5972;42.134;24.718;2023-07-29T00:16:54;99318.78;;;20.99;60.68
11830;BME280;5972;42.134;24.718;2023-07-29T00:19:20;99323.44;;;21.02;61.07
11830;BME280;5972;42.134;24.718;2023-07-29T00:21:48;99326.13;;;21.29;59.94
11830;BME280;5972;42.134;24.718;2023-07-29T00:24:17;99334.25;;;21.40;59.84
11830;BME280;5972;42.134;24.718;2023-07-29T00:26:43;99333.78;;;21.41;60.03
11830;BME280;5972;42.134;24.718;2023-07-29T00:29:10;99341.56;;;21.46;60.16
11830;BME280;5972;42.134;24.718;2023-07-29T00:31:37;99338.28;;;21.55;59.37
11830;BME280;5972;42.134;24.718;2023-07-29T00:34:03;99334.38;;;21.52;59.66
11830;BME280;5972;42.134;24.718;2023-07-29T00:36:30;99337.34;;;21.19;60.99
11830;BME280;5972;42.134;24.718;2023-07-29T00:38:57;99325.38;;;21.05;61.40
11830;BME280;5972;42.134;24.718;2023-07-29T00:41:25;99333.84;;;20.91;63.42
11830;BME280;5972;42.134;24.718;2023-07-29T00:43:52;99344.22;;;20.80;65.15
11830;BME280;5972;42.134;24.718;2023-07-29T00:46:20;99341.28;;;20.94;64.17
11830;BME280;5972;42.134;24.718;2023-07-29T00:48:46;99332.47;;;21.03;63.59
11830;BME280;5972;42.134;24.718;2023-07-29T00:51:13;99324.44;;;21.15;62.49
11830;BME280;5972;42.134;24.718;2023-07-29T00:53:40;99323.53;;;21.22;61.67
11830;BME280;5972;42.134;24.718;2023-07-29T00:56:07;99332.78;;;21.32;60.93
11830;BME280;5972;42.134;24.718;2023-07-29T00:58:35;99328.84;;;21.33;60.69
11830;BME280;5972;42.134;24.718;2023-07-29T01:01:02;99330.47;;;21.30;60.48
11830;BME280;5972;42.134;24.718;2023-07-29T01:03:29;99293.66;;;20.74;63.54
11830;BME280;5972;42.134;24.718;2023-07-29T01:06:04;99318.25;;;21.08;64.02
11830;BME280;5972;42.134;24.718;2023-07-29T01:08:40;99328.25;;;21.22;62.08
11830;BME280;5972;42.134;24.718;2023-07-29T01:11:18;99329.19;;;21.35;61.51
11830;BME280;5972;42.134;24.718;2023-07-29T01:13:52;99338.09;;;21.42;60.84
11830;BME280;5972;42.134;24.718;2023-07-29T01:16:25;99325.31;;;21.32;61.22
11830;BME280;5972;42.134;24.718;2023-07-29T01:18:58;99330.53;;;21.27;61.85
11830;BME280;5972;42.134;24.718;2023-07-29T01:21:29;99324.72;;;21.21;62.84
11830;BME280;5972;42.134;24.718;2023-07-29T01:23:59;99330.13;;;21.28;63.10
11830;BME280;5972;42.134;24.718;2023-07-29T01:26:26;99326.13;;;21.29;63.09
11830;BME280;5972;42.134;24.718;2023-07-29T01:28:55;99336.53;;;21.41;63.36
11830;BME280;5972;42.134;24.718;2023-07-29T01:31:28;99337.03;;;21.36;63.47
11830;BME280;5972;42.134;24.718;2023-07-29T01:33:59;99326.28;;;21.22;63.79
11830;BME280;5972;42.134;24.718;2023-07-29T01:36:31;99334.47;;;21.26;64.11
11830;BME280;5972;42.134;24.718;2023-07-29T01:39:02;99339.28;;;21.22;64.28
11830;BME280;5972;42.134;24.718;2023-07-29T01:41:29;99339.75;;;21.17;64.75
11830;BME280;5972;42.134;24.718;2023-07-29T01:43:56;99331.94;;;21.11;64.99
11830;BME280;5972;42.134;24.718;2023-07-29T01:46:23;99325.78;;;21.04;66.25
11830;BME280;5972;42.134;24.718;2023-07-29T01:48:50;99339.84;;;21.09;66.71
11830;BME280;5972;42.134;24.718;2023-07-29T01:51:17;99327.94;;;20.93;67.24
11830;BME280;5972;42.134;24.718;2023-07-29T01:53:44;99326.94;;;21.06;66.82
11830;BME280;5972;42.134;24.718;2023-07-29T01:56:12;99342.19;;;21.11;67.63
11830;BME280;5972;42.134;24.718;2023-07-29T01:58:39;99350.06;;;21.09;68.36
11830;BME280;5972;42.134;24.718;2023-07-29T02:01:05;99346.13;;;21.10;68.23
11830;BME280;5972;42.134;24.718;2023-07-29T02:03:32;99350.06;;;21.09;68.57
11830;BME280;5972;42.134;24.718;2023-07-29T02:05:59;99337.63;;;21.01;69.76
11830;BME280;5972;42.134;24.718;2023-07-29T02:08:26;99349.94;;;20.93;71.04
11830;BME280;5972;42.134;24.718;2023-07-29T02:10:52;99350.78;;;20.90;71.52
11830;BME280;5972;42.134;24.718;2023-07-29T02:13:21;99352.09;;;21.05;70.70
11830;BME280;5972;42.134;24.718;2023-07-29T02:15:47;99365.47;;;21.03;71.45
11830;BME280;5972;42.134;24.718;2023-07-29T02:18:14;99371.56;;;20.91;73.00
11830;BME280;5972;42.134;24.718;2023-07-29T02:20:41;99368.16;;;20.83;75.03
11830;BME280;5972;42.134;24.718;2023-07-29T02:23:14;99364.94;;;20.88;75.03
11830;BME280;5972;42.134;24.718;2023-07-29T02:25:41;99360.94;;;20.66;77.37
11830;BME280;5972;42.134;24.718;2023-07-29T02:28:08;99358.25;;;20.62;78.09
11830;BME280;5972;42.134;24.718;2023-07-29T02:30:36;99347.25;;;20.62;77.50
11830;BME280;5972;42.134;24.718;2023-07-29T02:33:03;99359.69;;;20.70;77.66
11830;BME280;5972;42.134;24.718;2023-07-29T02:35:29;99358.88;;;20.47;80.11
11830;BME280;5972;42.134;24.718;2023-07-29T02:37:56;99361.06;;;20.59;81.42
11830;BME280;5972;42.134;24.718;2023-07-29T02:40:23;99356.81;;;20.54;80.15
11830;BME280;5972;42.134;24.718;2023-07-29T02:42:52;99361.16;;;20.52;81.42
11830;BME280;5972;42.134;24.718;2023-07-29T02:45:18;99360.81;;;20.46;81.37
11830;BME280;5972;42.134;24.718;2023-07-29T02:47:46;99367.94;;;20.44;81.45
11830;BME280;5972;42.134;24.718;2023-07-29T02:50:13;99370.56;;;20.51;80.93
11830;BME280;5972;42.134;24.718;2023-07-29T02:52:40;99359.25;;;20.49;81.57
11830;BME280;5972;42.134;24.718;2023-07-29T02:55:07;99355.38;;;20.43;81.81
11830;BME280;5972;42.134;24.718;2023-07-29T02:57:34;99359.31;;;20.42;81.91
11830;BME280;5972;42.134;24.718;2023-07-29T03:00:01;99359.63;;;20.47;82.06
11830;BME280;5972;42.134;24.718;2023-07-29T03:02:27;99366.38;;;20.43;83.07
11830;BME280;5972;42.134;24.718;2023-07-29T03:04:55;99358.63;;;20.34;83.51
11830;BME280;5972;42.134;24.718;2023-07-29T03:07:22;99366.84;;;20.38;82.73
11830;BME280;5972;42.134;24.718;2023-07-29T03:09:49;99374.31;;;20.37;82.98
11830;BME280;5972;42.134;24.718;2023-07-29T03:12:16;99382.19;;;20.35;82.77
11830;BME280;5972;42.134;24.718;2023-07-29T03:14:42;99379.28;;;20.46;80.90
11830;BME280;5972;42.134;24.718;2023-07-29T03:17:09;99373.84;;;20.42;80.04
11830;BME280;5972;42.134;24.718;2023-07-29T03:19:36;99377.44;;;20.39;80.49
11830;BME280;5972;42.134;24.718;2023-07-29T03:22:04;99378.88;;;20.47;79.59
11830;BME280;5972;42.134;24.718;2023-07-29T03:24:31;99389.56;;;20.42;80.54
11830;BME280;5972;42.134;24.718;2023-07-29T03:26:58;99378.72;;;20.27;81.48
11830;BME280;5972;42.134;24.718;2023-07-29T03:29:24;99390.06;;;20.33;81.66
11830;BME280;5972;42.134;24.718;2023-07-29T03:31:52;99369.72;;;20.23;81.28
11830;BME280;5972;42.134;24.718;2023-07-29T03:34:18;99396.34;;;20.33;82.44
11830;BME280;5972;42.134;24.718;2023-07-29T03:36:45;99384.78;;;20.46;81.71
11830;BME280;5972;42.134;24.718;2023-07-29T03:39:14;99367.41;;;20.52;80.44
11830;BME280;5972;42.134;24.718;2023-07-29T03:41:41;99389.78;;;20.81;78.25
11830;BME280;5972;42.134;24.718;2023-07-29T03:44:08;99397.41;;;20.97;77.44
11830;BME280;5972;42.134;24.718;2023-07-29T03:46:34;99400.53;;;20.99;75.55
11830;BME280;5972;42.134;24.718;2023-07-29T03:49:01;99373.19;;;20.88;77.44
11830;BME280;5972;42.134;24.718;2023-07-29T03:51:28;99384.78;;;21.26;75.10
11830;BME280;5972;42.134;24.718;2023-07-29T03:53:55;99399.81;;;21.22;76.14
11830;BME280;5972;42.134;24.718;2023-07-29T03:56:23;99406.97;;;21.15;77.29
11830;BME280;5972;42.134;24.718;2023-07-29T03:58:50;99385.28;;;21.21;75.11
11830;BME280;5972;42.134;24.718;2023-07-29T04:01:17;99404.69;;;21.57;72.32
11830;BME280;5972;42.134;24.718;2023-07-29T04:03:44;99423.13;;;21.83;71.25
11830;BME280;5972;42.134;24.718;2023-07-29T04:06:11;99421.09;;;22.07;69.53
11830;BME280;5972;42.134;24.718;2023-07-29T04:08:38;99418.84;;;22.02;69.32
11830;BME280;5972;42.134;24.718;2023-07-29T04:11:06;99411.16;;;22.33;67.41
11830;BME280;5972;42.134;24.718;2023-07-29T04:13:34;99416.72;;;22.49;66.46
11830;BME280;5972;42.134;24.718;2023-07-29T04:16:03;99412.53;;;22.61;65.79
11830;BME280;5972;42.134;24.718;2023-07-29T04:18:30;99416.75;;;22.65;64.94
11830;BME280;5972;42.134;24.718;2023-07-29T04:20:56;99426.56;;;23.02;63.39
11830;BME280;5972;42.134;24.718;2023-07-29T04:23:23;99432.03;;;23.22;62.20
11830;BME280;5972;42.134;24.718;2023-07-29T04:25:50;99420.47;;;23.43;60.91
11830;BME280;5972;42.134;24.718;2023-07-29T04:28:17;99427.88;;;23.79;58.29
11830;BME280;5972;42.134;24.718;2023-07-29T04:30:45;99424.19;;;24.94;53.83
11830;BME280;5972;42.134;24.718;2023-07-29T04:33:12;99431.03;;;25.87;50.23
11830;BME280;5972;42.134;24.718;2023-07-29T04:35:38;99423.50;;;27.91;44.73
11830;BME280;5972;42.134;24.718;2023-07-29T04:38:05;99432.56;;;29.30;40.36
11830;BME280;5972;42.134;24.718;2023-07-29T04:40:32;99433.69;;;28.21;41.87
11830;BME280;5972;42.134;24.718;2023-07-29T04:43:00;99438.00;;;30.49;37.52
11830;BME280;5972;42.134;24.718;2023-07-29T04:45:28;99434.88;;;32.01;34.64
11830;BME280;5972;42.134;24.718;2023-07-29T04:47:56;99426.34;;;32.62;33.06
11830;BME280;5972;42.134;24.718;2023-07-29T04:50:23;99424.69;;;33.55;31.87
11830;BME280;5972;42.134;24.718;2023-07-29T04:52:50;99434.53;;;32.97;31.82
11830;BME280;5972;42.134;24.718;2023-07-29T04:55:18;99427.72;;;33.52;30.62
11830;BME280;5972;42.134;24.718;2023-07-29T04:57:44;99431.34;;;34.34;29.74
11830;BME280;5972;42.134;24.718;2023-07-29T05:00:11;99424.75;;;34.87;28.68
11830;BME280;5972;42.134;24.718;2023-07-29T05:02:38;99433.38;;;31.80;32.72
11830;BME280;5972;42.134;24.718;2023-07-29T05:05:07;99434.72;;;31.09;34.11
11830;BME280;5972;42.134;24.718;2023-07-29T05:07:34;99426.66;;;33.01;31.77
11830;BME280;5972;42.134;24.718;2023-07-29T05:10:01;99447.97;;;34.65;29.51
11830;BME280;5972;42.134;24.718;2023-07-29T05:12:28;99448.22;;;34.61;28.79
11830;BME280;5972;42.134;24.718;2023-07-29T05:14:55;99444.84;;;35.47;28.43
11830;BME280;5972;42.134;24.718;2023-07-29T05:17:22;99444.50;;;36.65;26.72
11830;BME280;5972;42.134;24.718;2023-07-29T05:19:49;99442.59;;;37.03;26.44
11830;BME280;5972;42.134;24.718;2023-07-29T05:22:17;99420.34;;;37.48;25.30
11830;BME280;5972;42.134;24.718;2023-07-29T05:24:44;99456.06;;;38.26;24.86
11830;BME280;5972;42.134;24.718;2023-07-29T05:27:10;99456.50;;;36.72;26.32
11830;BME280;5972;42.134;24.718;2023-07-29T05:29:37;99444.63;;;35.22;28.17
11830;BME280;5972;42.134;24.718;2023-07-29T05:32:05;99454.72;;;33.92;29.82
11830;BME280;5972;42.134;24.718;2023-07-29T05:34:31;99448.00;;;31.90;32.25
11830;BME280;5972;42.134;24.718;2023-07-29T05:36:58;99450.72;;;31.84;32.66
11830;BME280;5972;42.134;24.718;2023-07-29T05:39:26;99457.63;;;30.40;34.78
11830;BME280;5972;42.134;24.718;2023-07-29T05:41:53;99424.00;;;32.86;31.67
11830;BME280;5972;42.134;24.718;2023-07-29T05:44:20;99454.88;;;34.47;29.72
11830;BME280;5972;42.134;24.718;2023-07-29T05:46:47;99468.34;;;35.60;28.19
11830;BME280;5972;42.134;24.718;2023-07-29T05:49:14;99462.69;;;37.48;26.40
11830;BME280;5972;42.134;24.718;2023-07-29T05:51:40;99472.56;;;36.41;26.67
11830;BME280;5972;42.134;24.718;2023-07-29T05:54:07;99460.25;;;34.95;27.43
11830;BME280;5972;42.134;24.718;2023-07-29T05:56:35;99463.16;;;35.81;27.03
11830;BME280;5972;42.134;24.718;2023-07-29T05:59:02;99450.41;;;37.89;25.47
11830;BME280;5972;42.134;24.718;2023-07-29T06:01:29;99454.88;;;38.35;24.91
11830;BME280;5972;42.134;24.718;2023-07-29T06:03:55;99454.75;;;36.28;26.41
11830;BME280;5972;42.134;24.718;2023-07-29T06:06:22;99448.47;;;34.36;28.86
11830;BME280;5972;42.134;24.718;2023-07-29T06:08:49;99453.13;;;37.33;25.90
11830;BME280;5972;42.134;24.718;2023-07-29T06:11:16;99460.94;;;35.52;27.18
11830;BME280;5972;42.134;24.718;2023-07-29T06:13:45;99453.06;;;33.68;29.71
11830;BME280;5972;42.134;24.718;2023-07-29T06:16:12;99451.06;;;34.78;28.82
11830;BME280;5972;42.134;24.718;2023-07-29T06:18:39;99442.63;;;32.32;31.54
11830;BME280;5972;42.134;24.718;2023-07-29T06:21:05;99458.03;;;32.22;31.83
11830;BME280;5972;42.134;24.718;2023-07-29T06:23:33;99459.19;;;33.19;30.71
11830;BME280;5972;42.134;24.718;2023-07-29T06:26:00;99461.16;;;32.04;31.36
11830;BME280;5972;42.134;24.718;2023-07-29T06:28:26;99451.66;;;30.17;33.99
11830;BME280;5972;42.134;24.718;2023-07-29T06:30:55;99454.78;;;28.64;36.16
11830;BME280;5972;42.134;24.718;2023-07-29T06:33:22;99454.38;;;28.38;36.94
11830;BME280;5972;42.134;24.718;2023-07-29T06:35:49;99451.13;;;27.76;38.45
11830;BME280;5972;42.134;24.718;2023-07-29T06:38:16;99448.66;;;28.42;37.92
11830;BME280;5972;42.134;24.718;2023-07-29T06:40:46;99454.06;;;29.62;35.63
11830;BME280;5972;42.134;24.718;2023-07-29T06:43:13;99447.59;;;29.80;35.09
11830;BME280;5972;42.134;24.718;2023-07-29T06:45:40;99440.78;;;29.33;34.91
11830;BME280;5972;42.134;24.718;2023-07-29T06:48:08;99443.44;;;29.75;34.99
11830;BME280;5972;42.134;24.718;2023-07-29T06:50:35;99432.72;;;30.66;32.98
11830;BME280;5972;42.134;24.718;2023-07-29T06:53:02;99444.34;;;31.08;31.61
11830;BME280;5972;42.134;24.718;2023-07-29T06:55:29;99447.84;;;30.59;32.46
11830;BME280;5972;42.134;24.718;2023-07-29T06:57:56;99448.66;;;30.06;33.23
11830;BME280;5972;42.134;24.718;2023-07-29T07:00:23;99443.22;;;29.41;34.58
11830;BME280;5972;42.134;24.718;2023-07-29T07:02:49;99445.22;;;29.40;34.54
11830;BME280;5972;42.134;24.718;2023-07-29T07:05:17;99441.66;;;29.07;35.12
11830;BME280;5972;42.134;24.718;2023-07-29T07:07:44;99443.38;;;30.23;33.68
11830;BME280;5972;42.134;24.718;2023-07-29T07:10:11;99440.34;;;30.50;32.83
11830;BME280;5972;42.134;24.718;2023-07-29T07:12:38;99439.09;;;30.51;33.14
11830;BME280;5972;42.134;24.718;2023-07-29T07:15:06;99436.31;;;29.74;34.67
11830;BME280;5972;42.134;24.718;2023-07-29T07:17:33;99427.56;;;29.82;34.58
11830;BME280;5972;42.134;24.718;2023-07-29T07:20:00;99425.34;;;28.81;35.74
11830;BME280;5972;42.134;24.718;2023-07-29T07:22:28;99422.84;;;29.49;35.30
11830;BME280;5972;42.134;24.718;2023-07-29T07:24:55;99419.69;;;29.80;34.90
11830;BME280;5972;42.134;24.718;2023-07-29T07:27:21;99427.66;;;29.72;35.18
11830;BME280;5972;42.134;24.718;2023-07-29T07:29:48;99419.66;;;28.76;36.80
11830;BME280;5972;42.134;24.718;2023-07-29T07:32:15;99411.00;;;28.74;37.13
11830;BME280;5972;42.134;24.718;2023-07-29T07:34:42;99412.81;;;28.86;37.09
11830;BME280;5972;42.134;24.718;2023-07-29T07:37:09;99413.22;;;28.93;37.22
11830;BME280;5972;42.134;24.718;2023-07-29T07:39:37;99410.38;;;28.70;37.27
11830;BME280;5972;42.134;24.718;2023-07-29T07:42:04;99401.72;;;28.68;37.42
11830;BME280;5972;42.134;24.718;2023-07-29T07:44:31;99390.91;;;29.36;37.19
11830;BME280;5972;42.134;24.718;2023-07-29T07:46:58;99399.03;;;29.15;36.73
11830;BME280;5972;42.134;24.718;2023-07-29T07:49:25;99387.94;;;29.77;36.02
11830;BME280;5972;42.134;24.718;2023-07-29T07:51:51;99395.91;;;30.38;34.99
11830;BME280;5972;42.134;24.718;2023-07-29T07:54:18;99400.34;;;30.74;34.40
11830;BME280;5972;42.134;24.718;2023-07-29T07:56:46;99387.34;;;31.20;33.41
11830;BME280;5972;42.134;24.718;2023-07-29T07:59:13;99391.44;;;31.05;33.97
11830;BME280;5972;42.134;24.718;2023-07-29T08:01:40;99390.84;;;31.15;33.93
11830;BME280;5972;42.134;24.718;2023-07-29T08:04:06;99384.38;;;30.74;34.38
11830;BME280;5972;42.134;24.718;2023-07-29T08:06:33;99374.84;;;30.66;34.40
11830;BME280;5972;42.134;24.718;2023-07-29T08:09:01;99379.22;;;30.87;34.53
11830;BME280;5972;42.134;24.718;2023-07-29T08:11:27;99372.81;;;31.02;34.27
11830;BME280;5972;42.134;24.718;2023-07-29T08:13:56;99374.28;;;31.32;33.72
11830;BME280;5972;42.134;24.718;2023-07-29T08:16:22;99378.63;;;31.53;33.48
11830;BME280;5972;42.134;24.718;2023-07-29T08:18:49;99367.97;;;31.77;33.10
11830;BME280;5972;42.134;24.718;2023-07-29T08:21:16;99356.72;;;31.72;33.23
11830;BME280;5972;42.134;24.718;2023-07-29T08:23:43;99356.25;;;31.53;33.11
11830;BME280;5972;42.134;24.718;2023-07-29T08:26:09;99360.28;;;31.12;34.43
11830;BME280;5972;42.134;24.718;2023-07-29T08:28:37;99372.94;;;31.07;34.20
11830;BME280;5972;42.134;24.718;2023-07-29T08:31:05;99352.34;;;31.65;33.15
11830;BME280;5972;42.134;24.718;2023-07-29T08:33:33;99345.66;;;31.83;33.25
11830;BME280;5972;42.134;24.718;2023-07-29T08:36:00;99342.19;;;31.48;33.64
11830;BME280;5972;42.134;24.718;2023-07-29T08:38:27;99338.69;;;31.53;33.56
11830;BME280;5972;42.134;24.718;2023-07-29T08:40:58;99341.22;;;31.30;33.67
11830;BME280;5972;42.134;24.718;2023-07-29T08:43:29;99341.72;;;31.29;33.66
11830;BME280;5972;42.134;24.718;2023-07-29T08:45:58;99336.09;;;31.49;33.39
11830;BME280;5972;42.134;24.718;2023-07-29T08:48:31;99321.25;;;31.37;32.90
11830;BME280;5972;42.134;24.718;2023-07-29T08:50:59;99313.00;;;31.74;32.80
11830;BME280;5972;42.134;24.718;2023-07-29T08:53:27;99324.41;;;32.23;32.04
11830;BME280;5972;42.134;24.718;2023-07-29T08:55:55;99316.69;;;32.12;32.20
11830;BME280;5972;42.134;24.718;2023-07-29T08:58:22;99311.84;;;31.61;32.60
11830;BME280;5972;42.134;24.718;2023-07-29T09:00:50;99330.72;;;31.46;32.65
11830;BME280;5972;42.134;24.718;2023-07-29T09:03:17;99327.56;;;32.04;31.70
11830;BME280;5972;42.134;24.718;2023-07-29T09:05:45;99318.06;;;32.53;31.22
11830;BME280;5972;42.134;24.718;2023-07-29T09:08:12;99322.09;;;32.89;30.29
11830;BME280;5972;42.134;24.718;2023-07-29T09:10:40;99321.91;;;32.25;31.30
11830;BME280;5972;42.134;24.718;2023-07-29T09:13:07;99319.81;;;31.94;31.73
11830;BME280;5972;42.134;24.718;2023-07-29T09:15:35;99306.88;;;30.89;31.87
11830;BME280;5972;42.134;24.718;2023-07-29T09:18:10;99320.88;;;31.30;31.96
11830;BME280;5972;42.134;24.718;2023-07-29T09:20:37;99299.81;;;31.75;31.56
11830;BME280;5972;42.134;24.718;2023-07-29T09:23:08;99306.59;;;31.94;nan
11830;BME280;5972;42.134;24.718;2023-07-29T09:25:35;99298.75;;;31.72;29.98
11830;BME280;5972;42.134;24.718;2023-07-29T09:28:08;99293.91;;;32.61;29.46
11830;BME280;5972;42.134;24.718;2023-07-29T09:30:36;99288.06;;;33.08;29.37
11830;BME280;5972;42.134;24.718;2023-07-29T09:33:02;99282.09;;;33.42;28.75
11830;BME280;5972;42.134;24.718;2023-07-29T09:35:32;99286.75;;;33.73;28.31
11830;BME280;5972;42.134;24.718;2023-07-29T09:37:59;99278.56;;;33.64;28.08
11830;BME280;5972;42.134;24.718;2023-07-29T09:40:28;99275.16;;;32.36;29.99
11830;BME280;5972;42.134;24.718;2023-07-29T09:43:00;99271.28;;;31.71;30.81
11830;BME280;5972;42.134;24.718;2023-07-29T09:45:27;99270.00;;;32.29;30.26
11830;BME280;5972;42.134;24.718;2023-07-29T09:47:57;99265.59;;;32.17;29.58
11830;BME280;5972;42.134;24.718;2023-07-29T09:50:24;99271.06;;;32.69;28.99
11830;BME280;5972;42.134;24.718;2023-07-29T09:52:52;99270.06;;;32.77;28.72
11830;BME280;5972;42.134;24.718;2023-07-29T09:55:20;99270.09;;;32.09;29.26
11830;BME280;5972;42.134;24.718;2023-07-29T09:57:53;99267.63;;;32.16;28.58
11830;BME280;5972;42.134;24.718;2023-07-29T10:00:20;99261.00;;;32.14;28.33
11830;BME280;5972;42.134;24.718;2023-07-29T10:02:47;99265.94;;;31.99;28.76
11830;BME280;5972;42.134;24.718;2023-07-29T10:05:14;99263.50;;;32.12;29.22
11830;BME280;5972;42.134;24.718;2023-07-29T10:07:41;99259.09;;;32.31;29.35
11830;BME280;5972;42.134;24.718;2023-07-29T10:10:08;99260.66;;;32.38;29.87
11830;BME280;5972;42.134;24.718;2023-07-29T10:12:35;99262.47;;;32.46;29.78
11830;BME280;5972;42.134;24.718;2023-07-29T10:15:05;99257.13;;;31.80;29.12
11830;BME280;5972;42.134;24.718;2023-07-29T10:17:34;99256.53;;;32.02;29.10
11830;BME280;5972;42.134;24.718;2023-07-29T10:20:03;99250.16;;;32.33;29.13
11830;BME280;5972;42.134;24.718;2023-07-29T10:22:33;99252.00;;;32.84;28.79
11830;BME280;5972;42.134;24.718;2023-07-29T10:25:03;99252.22;;;33.34;27.59
11830;BME280;5972;42.134;24.718;2023-07-29T10:27:38;99253.09;;;33.96;26.73
11830;BME280;5972;42.134;24.718;2023-07-29T10:30:11;99244.19;;;34.19;26.62
11830;BME280;5972;42.134;24.718;2023-07-29T10:32:38;99249.75;;;34.53;25.76
11830;BME280;5972;42.134;24.718;2023-07-29T10:35:07;99245.19;;;34.28;26.33
11830;BME280;5972;42.134;24.718;2023-07-29T10:37:34;99233.94;;;34.05;25.92
11830;BME280;5972;42.134;24.718;2023-07-29T10:40:06;99227.13;;;33.03;26.74
11830;BME280;5972;42.134;24.718;2023-07-29T10:42:33;99231.66;;;33.70;26.31
11830;BME280;5972;42.134;24.718;2023-07-29T10:45:02;99227.00;;;33.45;25.69
11830;BME280;5972;42.134;24.718;2023-07-29T10:47:44;99223.25;;;33.70;25.83
11830;BME280;5972;42.134;24.718;2023-07-29T10:50:17;99220.44;;;34.09;26.32
11830;BME280;5972;42.134;24.718;2023-07-29T10:52:49;99218.81;;;34.64;25.63
11830;BME280;5972;42.134;24.718;2023-07-29T10:55:24;99217.06;;;35.13;25.04
11830;BME280;5972;42.134;24.718;2023-07-29T10:57:51;99204.38;;;35.48;24.25
11830;BME280;5972;42.134;24.718;2023-07-29T11:00:19;99203.25;;;35.56;24.25
11830;BME280;5972;42.134;24.718;2023-07-29T11:02:58;99200.69;;;35.58;24.55
11830;BME280;5972;42.134;24.718;2023-07-29T11:05:25;99198.44;;;35.10;24.72
11830;BME280;5972;42.134;24.718;2023-07-29T11:07:52;99201.78;;;34.34;24.82
11830;BME280;5972;42.134;24.718;2023-07-29T11:10:19;99202.22;;;34.60;25.07
11830;BME280;5972;42.134;24.718;2023-07-29T11:12:48;99199.44;;;34.55;25.16
11830;BME280;5972;42.134;24.718;2023-07-29T11:15:22;99197.69;;;33.68;25.22
11830;BME280;5972;42.134;24.718;2023-07-29T11:17:52;99198.69;;;34.49;25.32
11830;BME280;5972;42.134;24.718;2023-07-29T11:20:21;99196.13;;;34.45;25.37
11830;BME280;5972;42.134;24.718;2023-07-29T11:22:48;99185.19;;;34.14;24.86
11830;BME280;5972;42.134;24.718;2023-07-29T11:25:17;99172.41;;;34.18;24.67
11830;BME280;5972;42.134;24.718;2023-07-29T11:27:44;99183.44;;;33.77;25.01
11830;BME280;5972;42.134;24.718;2023-07-29T11:30:13;99176.03;;;33.86;25.05
11830;BME280;5972;42.134;24.718;2023-07-29T11:32:41;99170.31;;;34.47;24.85
11830;BME280;5972;42.134;24.718;2023-07-29T11:35:11;99180.16;;;34.87;24.70
11830;BME280;5972;42.134;24.718;2023-07-29T11:37:39;99147.69;;;34.86;24.20
11830;BME280;5972;42.134;24.718;2023-07-29T11:40:06;99171.31;;;35.13;23.85
11830;BME280;5972;42.134;24.718;2023-07-29T11:42:36;99157.38;;;35.37;23.26
11830;BME280;5972;42.134;24.718;2023-07-29T11:45:03;99161.16;;;35.04;23.35
11830;BME280;5972;42.134;24.718;2023-07-29T11:47:32;99132.38;;;33.96;24.07
11830;BME280;5972;42.134;24.718;2023-07-29T11:50:02;99157.91;;;34.89;24.16
11830;BME280;5972;42.134;24.718;2023-07-29T11:52:31;99151.94;;;35.03;24.21
11830;BME280;5972;42.134;24.718;2023-07-29T11:54:58;99137.34;;;34.53;24.56
11830;BME280;5972;42.134;24.718;2023-07-29T11:57:25;99125.31;;;34.63;23.96
11830;BME280;5972;42.134;24.718;2023-07-29T11:59:52;99153.63;;;34.77;24.17
11830;BME280;5972;42.134;24.718;2023-07-29T12:02:20;99142.41;;;34.77;23.97
11830;BME280;5972;42.134;24.718;2023-07-29T12:04:48;99150.47;;;34.91;24.00
11830;BME280;5972;42.134;24.718;2023-07-29T12:07:16;99129.75;;;35.35;23.37
11830;BME280;5972;42.134;24.718;2023-07-29T12:09:46;99142.34;;;34.88;23.61
11830;BME280;5972;42.134;24.718;2023-07-29T12:12:14;99126.31;;;34.72;24.61
11830;BME280;5972;42.134;24.718;2023-07-29T12:14:44;99128.91;;;34.58;25.16
11830;BME280;5972;42.134;24.718;2023-07-29T12:17:12;99131.66;;;34.75;25.13
11830;BME280;5972;42.134;24.718;2023-07-29T12:19:40;99134.66;;;34.25;25.50
11830;BME280;5972;42.134;24.718;2023-07-29T12:22:08;99117.31;;;34.04;25.10
11830;BME280;5972;42.134;24.718;2023-07-29T12:24:36;99126.22;;;34.31;25.39
11830;BME280;5972;42.134;24.718;2023-07-29T12:27:05;99112.34;;;34.49;25.51
11830;BME280;5972;42.134;24.718;2023-07-29T12:29:32;99116.31;;;34.02;25.66
11830;BME280;5972;42.134;24.718;2023-07-29T12:32:06;99120.69;;;33.75;25.60
11830;BME280;5972;42.134;24.718;2023-07-29T12:34:33;99109.66;;;34.10;25.61
11830;BME280;5972;42.134;24.718;2023-07-29T12:37:02;99111.44;;;34.02;25.65
11830;BME280;5972;42.134;24.718;2023-07-29T12:39:30;99106.63;;;33.97;25.35
11830;BME280;5972;42.134;24.718;2023-07-29T12:42:00;99103.31;;;33.93;24.66
11830;BME280;5972;42.134;24.718;2023-07-29T12:44:29;99088.50;;;33.93;25.26
11830;BME280;5972;42.134;24.718;2023-07-29T12:46:56;99097.50;;;34.54;24.19
11830;BME280;5972;42.134;24.718;2023-07-29T12:49:24;99095.88;;;34.76;24.22
11830;BME280;5972;42.134;24.718;2023-07-29T12:51:51;99086.13;;;34.25;23.93
11830;BME280;5972;42.134;24.718;2023-07-29T12:54:18;99085.50;;;34.54;24.17
11830;BME280;5972;42.134;24.718;2023-07-29T12:56:45;99101.84;;;34.50;23.86
11830;BME280;5972;42.134;24.718;2023-07-29T12:59:11;99102.91;;;34.47;23.62
11830;BME280;5972;42.134;24.718;2023-07-29T13:01:40;99097.09;;;34.28;24.22
11830;BME280;5972;42.134;24.718;2023-07-29T13:04:07;99096.50;;;34.46;23.90